<?xml version="1.0" encoding="UTF-8" standalone="no" ?>
<gpx xmlns="http://www.topografix.com/GPX/1/1" xmlns:xsi="http://www.w3.org/2001/XMLSchema-instance" xsi:schemaLocation="http://www.topografix.com/GPX/1/1 http://www.topografix.com/GPX/1/1/gpx.xsd" version="1.1" creator="VisuGPX - https://www.visugpx.com">
  <metadata>
    <name>SORTIE VAE </name>
  </metadata>
  <trk>
    <name><![CDATA[4189721-Le tour du mont Masson]]></name>
    <extensions>
      <line xmlns="http://www.topografix.com/GPX/gpx_style/0/2">
        <color>0000FF</color>
        <width>4</width>
      </line>
    </extensions>
    <trkseg>
      <trkpt lat="47.75726" lon="6.65668">
        <ele>467.7</ele>
        <time>2022-05-28T03:59:07Z</time>
      </trkpt>
      <trkpt lat="47.75702" lon="6.65727">
        <ele>466</ele>
        <time>2022-05-28T03:59:18Z</time>
      </trkpt>
      <trkpt lat="47.75687" lon="6.65922">
        <ele>470</ele>
        <time>2022-05-28T03:59:49Z</time>
      </trkpt>
      <trkpt lat="47.75658" lon="6.66036">
        <ele>472</ele>
        <time>2022-05-28T04:00:08Z</time>
      </trkpt>
      <trkpt lat="47.75645" lon="6.66115">
        <ele>473</ele>
        <time>2022-05-28T04:00:21Z</time>
      </trkpt>
      <trkpt lat="47.75632" lon="6.66199">
        <ele>475</ele>
        <time>2022-05-28T04:00:34Z</time>
      </trkpt>
      <trkpt lat="47.75617" lon="6.66267">
        <ele>475</ele>
        <time>2022-05-28T04:00:45Z</time>
      </trkpt>
      <trkpt lat="47.75617" lon="6.6633">
        <ele>477</ele>
        <time>2022-05-28T04:00:55Z</time>
      </trkpt>
      <trkpt lat="47.75623" lon="6.66407">
        <ele>477</ele>
        <time>2022-05-28T04:01:07Z</time>
      </trkpt>
      <trkpt lat="47.75627" lon="6.66465">
        <ele>479</ele>
        <time>2022-05-28T04:01:17Z</time>
      </trkpt>
      <trkpt lat="47.75613" lon="6.66521">
        <ele>479</ele>
        <time>2022-05-28T04:01:26Z</time>
      </trkpt>
      <trkpt lat="47.75596" lon="6.66576">
        <ele>480</ele>
        <time>2022-05-28T04:01:35Z</time>
      </trkpt>
      <trkpt lat="47.75567" lon="6.66649">
        <ele>479</ele>
        <time>2022-05-28T04:01:49Z</time>
      </trkpt>
      <trkpt lat="47.75551" lon="6.66701">
        <ele>478</ele>
        <time>2022-05-28T04:01:58Z</time>
      </trkpt>
      <trkpt lat="47.75537" lon="6.66757">
        <ele>478</ele>
        <time>2022-05-28T04:02:07Z</time>
      </trkpt>
      <trkpt lat="47.75531" lon="6.66817">
        <ele>478</ele>
        <time>2022-05-28T04:02:17Z</time>
      </trkpt>
      <trkpt lat="47.75516" lon="6.6686">
        <ele>478</ele>
        <time>2022-05-28T04:02:24Z</time>
      </trkpt>
      <trkpt lat="47.75482" lon="6.66911">
        <ele>478</ele>
        <time>2022-05-28T04:02:35Z</time>
      </trkpt>
      <trkpt lat="47.75441" lon="6.66954">
        <ele>475</ele>
        <time>2022-05-28T04:02:47Z</time>
      </trkpt>
      <trkpt lat="47.75414" lon="6.67016">
        <ele>473</ele>
        <time>2022-05-28T04:02:59Z</time>
      </trkpt>
      <trkpt lat="47.75385" lon="6.67053">
        <ele>473</ele>
        <time>2022-05-28T04:03:08Z</time>
      </trkpt>
      <trkpt lat="47.75361" lon="6.67066">
        <ele>473</ele>
        <time>2022-05-28T04:03:14Z</time>
      </trkpt>
      <trkpt lat="47.75333" lon="6.6701">
        <ele>474</ele>
        <time>2022-05-28T04:03:25Z</time>
      </trkpt>
      <trkpt lat="47.753" lon="6.67008">
        <ele>474</ele>
        <time>2022-05-28T04:03:32Z</time>
      </trkpt>
      <trkpt lat="47.75267" lon="6.67025">
        <ele>474</ele>
        <time>2022-05-28T04:03:41Z</time>
      </trkpt>
      <trkpt lat="47.75232" lon="6.67042">
        <ele>475</ele>
        <time>2022-05-28T04:03:49Z</time>
      </trkpt>
      <trkpt lat="47.75199" lon="6.67064">
        <ele>476</ele>
        <time>2022-05-28T04:03:58Z</time>
      </trkpt>
      <trkpt lat="47.75179" lon="6.67115">
        <ele>477</ele>
        <time>2022-05-28T04:04:07Z</time>
      </trkpt>
      <trkpt lat="47.75156" lon="6.67154">
        <ele>478</ele>
        <time>2022-05-28T04:04:15Z</time>
      </trkpt>
      <trkpt lat="47.75133" lon="6.67203">
        <ele>478</ele>
        <time>2022-05-28T04:04:24Z</time>
      </trkpt>
      <trkpt lat="47.75117" lon="6.67248">
        <ele>478</ele>
        <time>2022-05-28T04:04:32Z</time>
      </trkpt>
      <trkpt lat="47.7511" lon="6.67287">
        <ele>479</ele>
        <time>2022-05-28T04:04:39Z</time>
      </trkpt>
      <trkpt lat="47.75107" lon="6.6734">
        <ele>481</ele>
        <time>2022-05-28T04:04:47Z</time>
      </trkpt>
      <trkpt lat="47.7511" lon="6.67385">
        <ele>481</ele>
        <time>2022-05-28T04:04:54Z</time>
      </trkpt>
      <trkpt lat="47.7512" lon="6.67433">
        <ele>482</ele>
        <time>2022-05-28T04:05:02Z</time>
      </trkpt>
      <trkpt lat="47.75134" lon="6.67467">
        <ele>481</ele>
        <time>2022-05-28T04:05:08Z</time>
      </trkpt>
      <trkpt lat="47.75127" lon="6.67506">
        <ele>483</ele>
        <time>2022-05-28T04:05:15Z</time>
      </trkpt>
      <trkpt lat="47.75099" lon="6.67548">
        <ele>486</ele>
        <time>2022-05-28T04:05:24Z</time>
      </trkpt>
      <trkpt lat="47.75073" lon="6.67609">
        <ele>493</ele>
        <time>2022-05-28T04:05:35Z</time>
      </trkpt>
      <trkpt lat="47.75085" lon="6.67669">
        <ele>502</ele>
        <time>2022-05-28T04:05:45Z</time>
      </trkpt>
      <trkpt lat="47.75063" lon="6.67707">
        <ele>507</ele>
        <time>2022-05-28T04:05:53Z</time>
      </trkpt>
      <trkpt lat="47.75065" lon="6.67759">
        <ele>515</ele>
        <time>2022-05-28T04:06:01Z</time>
      </trkpt>
      <trkpt lat="47.75059" lon="6.67804">
        <ele>519</ele>
        <time>2022-05-28T04:06:08Z</time>
      </trkpt>
      <trkpt lat="47.75046" lon="6.67853">
        <ele>524</ele>
        <time>2022-05-28T04:06:17Z</time>
      </trkpt>
      <trkpt lat="47.75036" lon="6.67896">
        <ele>530</ele>
        <time>2022-05-28T04:06:24Z</time>
      </trkpt>
      <trkpt lat="47.75027" lon="6.67973">
        <ele>540</ele>
        <time>2022-05-28T04:06:36Z</time>
      </trkpt>
      <trkpt lat="47.75023" lon="6.68042">
        <ele>553</ele>
        <time>2022-05-28T04:06:47Z</time>
      </trkpt>
      <trkpt lat="47.75009" lon="6.68089">
        <ele>565</ele>
        <time>2022-05-28T04:06:55Z</time>
      </trkpt>
      <trkpt lat="47.74996" lon="6.6813">
        <ele>576</ele>
        <time>2022-05-28T04:07:02Z</time>
      </trkpt>
      <trkpt lat="47.74985" lon="6.68177">
        <ele>585</ele>
        <time>2022-05-28T04:07:10Z</time>
      </trkpt>
      <trkpt lat="47.74985" lon="6.68224">
        <ele>595</ele>
        <time>2022-05-28T04:07:17Z</time>
      </trkpt>
      <trkpt lat="47.74974" lon="6.68263">
        <ele>604</ele>
        <time>2022-05-28T04:07:24Z</time>
      </trkpt>
      <trkpt lat="47.74968" lon="6.68293">
        <ele>611</ele>
        <time>2022-05-28T04:07:29Z</time>
      </trkpt>
      <trkpt lat="47.7499" lon="6.68332">
        <ele>617</ele>
        <time>2022-05-28T04:07:37Z</time>
      </trkpt>
      <trkpt lat="47.75003" lon="6.68383">
        <ele>623</ele>
        <time>2022-05-28T04:07:45Z</time>
      </trkpt>
      <trkpt lat="47.75014" lon="6.68435">
        <ele>627</ele>
        <time>2022-05-28T04:07:54Z</time>
      </trkpt>
      <trkpt lat="47.75033" lon="6.68473">
        <ele>626</ele>
        <time>2022-05-28T04:08:01Z</time>
      </trkpt>
      <trkpt lat="47.75055" lon="6.6851">
        <ele>624</ele>
        <time>2022-05-28T04:08:09Z</time>
      </trkpt>
      <trkpt lat="47.75075" lon="6.68551">
        <ele>626</ele>
        <time>2022-05-28T04:08:17Z</time>
      </trkpt>
      <trkpt lat="47.75078" lon="6.68593">
        <ele>634</ele>
        <time>2022-05-28T04:08:24Z</time>
      </trkpt>
      <trkpt lat="47.75081" lon="6.68641">
        <ele>642</ele>
        <time>2022-05-28T04:08:31Z</time>
      </trkpt>
      <trkpt lat="47.75086" lon="6.68688">
        <ele>650</ele>
        <time>2022-05-28T04:08:39Z</time>
      </trkpt>
      <trkpt lat="47.7511" lon="6.68729">
        <ele>653</ele>
        <time>2022-05-28T04:08:47Z</time>
      </trkpt>
      <trkpt lat="47.7514" lon="6.68696">
        <ele>640</ele>
        <time>2022-05-28T04:08:56Z</time>
      </trkpt>
      <trkpt lat="47.7517" lon="6.68643">
        <ele>623</ele>
        <time>2022-05-28T04:09:07Z</time>
      </trkpt>
      <trkpt lat="47.75218" lon="6.686">
        <ele>619</ele>
        <time>2022-05-28T04:09:20Z</time>
      </trkpt>
      <trkpt lat="47.7526" lon="6.68561">
        <ele>615</ele>
        <time>2022-05-28T04:09:32Z</time>
      </trkpt>
      <trkpt lat="47.753" lon="6.68533">
        <ele>611</ele>
        <time>2022-05-28T04:09:42Z</time>
      </trkpt>
      <trkpt lat="47.75335" lon="6.68497">
        <ele>608</ele>
        <time>2022-05-28T04:09:52Z</time>
      </trkpt>
      <trkpt lat="47.75368" lon="6.68467">
        <ele>600</ele>
        <time>2022-05-28T04:10:01Z</time>
      </trkpt>
      <trkpt lat="47.75362" lon="6.68553">
        <ele>609</ele>
        <time>2022-05-28T04:10:14Z</time>
      </trkpt>
      <trkpt lat="47.75359" lon="6.68634">
        <ele>617</ele>
        <time>2022-05-28T04:10:27Z</time>
      </trkpt>
      <trkpt lat="47.75363" lon="6.68688">
        <ele>619</ele>
        <time>2022-05-28T04:10:36Z</time>
      </trkpt>
      <trkpt lat="47.75378" lon="6.68765">
        <ele>618</ele>
        <time>2022-05-28T04:10:48Z</time>
      </trkpt>
      <trkpt lat="47.75398" lon="6.6883">
        <ele>615</ele>
        <time>2022-05-28T04:10:59Z</time>
      </trkpt>
      <trkpt lat="47.75408" lon="6.68868">
        <ele>618</ele>
        <time>2022-05-28T04:11:06Z</time>
      </trkpt>
      <trkpt lat="47.7543" lon="6.68915">
        <ele>624</ele>
        <time>2022-05-28T04:11:15Z</time>
      </trkpt>
      <trkpt lat="47.75473" lon="6.68872">
        <ele>613</ele>
        <time>2022-05-28T04:11:27Z</time>
      </trkpt>
      <trkpt lat="47.75512" lon="6.68834">
        <ele>606</ele>
        <time>2022-05-28T04:11:38Z</time>
      </trkpt>
      <trkpt lat="47.7555" lon="6.68782">
        <ele>603</ele>
        <time>2022-05-28T04:11:50Z</time>
      </trkpt>
      <trkpt lat="47.75583" lon="6.68744">
        <ele>601</ele>
        <time>2022-05-28T04:12:00Z</time>
      </trkpt>
      <trkpt lat="47.75626" lon="6.68718">
        <ele>601</ele>
        <time>2022-05-28T04:12:11Z</time>
      </trkpt>
      <trkpt lat="47.75674" lon="6.68718">
        <ele>606</ele>
        <time>2022-05-28T04:12:22Z</time>
      </trkpt>
      <trkpt lat="47.75718" lon="6.68752">
        <ele>608</ele>
        <time>2022-05-28T04:12:33Z</time>
      </trkpt>
      <trkpt lat="47.7576" lon="6.68782">
        <ele>609</ele>
        <time>2022-05-28T04:12:44Z</time>
      </trkpt>
      <trkpt lat="47.75814" lon="6.6881">
        <ele>608</ele>
        <time>2022-05-28T04:12:58Z</time>
      </trkpt>
      <trkpt lat="47.75861" lon="6.68814">
        <ele>607</ele>
        <time>2022-05-28T04:13:09Z</time>
      </trkpt>
      <trkpt lat="47.7587" lon="6.68853">
        <ele>609</ele>
        <time>2022-05-28T04:13:15Z</time>
      </trkpt>
      <trkpt lat="47.75873" lon="6.68909">
        <ele>609</ele>
        <time>2022-05-28T04:13:24Z</time>
      </trkpt>
      <trkpt lat="47.75877" lon="6.68943">
        <ele>607</ele>
        <time>2022-05-28T04:13:29Z</time>
      </trkpt>
      <trkpt lat="47.75874" lon="6.68988">
        <ele>606</ele>
        <time>2022-05-28T04:13:36Z</time>
      </trkpt>
      <trkpt lat="47.75857" lon="6.69033">
        <ele>605</ele>
        <time>2022-05-28T04:13:44Z</time>
      </trkpt>
      <trkpt lat="47.75841" lon="6.69081">
        <ele>605</ele>
        <time>2022-05-28T04:13:53Z</time>
      </trkpt>
      <trkpt lat="47.75821" lon="6.69111">
        <ele>604</ele>
        <time>2022-05-28T04:14:00Z</time>
      </trkpt>
      <trkpt lat="47.75782" lon="6.69171">
        <ele>600</ele>
        <time>2022-05-28T04:14:13Z</time>
      </trkpt>
      <trkpt lat="47.75739" lon="6.6919">
        <ele>607</ele>
        <time>2022-05-28T04:14:23Z</time>
      </trkpt>
      <trkpt lat="47.757" lon="6.69224">
        <ele>609</ele>
        <time>2022-05-28T04:14:34Z</time>
      </trkpt>
      <trkpt lat="47.75666" lon="6.69267">
        <ele>606</ele>
        <time>2022-05-28T04:14:44Z</time>
      </trkpt>
      <trkpt lat="47.75636" lon="6.6931">
        <ele>605</ele>
        <time>2022-05-28T04:14:54Z</time>
      </trkpt>
      <trkpt lat="47.75604" lon="6.69366">
        <ele>603</ele>
        <time>2022-05-28T04:15:05Z</time>
      </trkpt>
      <trkpt lat="47.75578" lon="6.69426">
        <ele>601</ele>
        <time>2022-05-28T04:15:17Z</time>
      </trkpt>
      <trkpt lat="47.75551" lon="6.69465">
        <ele>605</ele>
        <time>2022-05-28T04:15:25Z</time>
      </trkpt>
      <trkpt lat="47.75516" lon="6.69512">
        <ele>607</ele>
        <time>2022-05-28T04:15:36Z</time>
      </trkpt>
      <trkpt lat="47.75516" lon="6.69546">
        <ele>607</ele>
        <time>2022-05-28T04:15:42Z</time>
      </trkpt>
      <trkpt lat="47.75561" lon="6.69542">
        <ele>604</ele>
        <time>2022-05-28T04:15:52Z</time>
      </trkpt>
      <trkpt lat="47.75616" lon="6.6954">
        <ele>601</ele>
        <time>2022-05-28T04:16:05Z</time>
      </trkpt>
      <trkpt lat="47.75668" lon="6.69525">
        <ele>596</ele>
        <time>2022-05-28T04:16:17Z</time>
      </trkpt>
      <trkpt lat="47.7572" lon="6.69514">
        <ele>591</ele>
        <time>2022-05-28T04:16:30Z</time>
      </trkpt>
      <trkpt lat="47.7577" lon="6.69499">
        <ele>585</ele>
        <time>2022-05-28T04:16:42Z</time>
      </trkpt>
      <trkpt lat="47.75819" lon="6.69488">
        <ele>578</ele>
        <time>2022-05-28T04:16:53Z</time>
      </trkpt>
      <trkpt lat="47.7587" lon="6.69473">
        <ele>569</ele>
        <time>2022-05-28T04:17:05Z</time>
      </trkpt>
      <trkpt lat="47.75927" lon="6.6946">
        <ele>560</ele>
        <time>2022-05-28T04:17:19Z</time>
      </trkpt>
      <trkpt lat="47.75975" lon="6.69478">
        <ele>561</ele>
        <time>2022-05-28T04:17:30Z</time>
      </trkpt>
      <trkpt lat="47.76024" lon="6.69486">
        <ele>557</ele>
        <time>2022-05-28T04:17:42Z</time>
      </trkpt>
      <trkpt lat="47.76075" lon="6.6948">
        <ele>547</ele>
        <time>2022-05-28T04:17:54Z</time>
      </trkpt>
      <trkpt lat="47.76132" lon="6.6948">
        <ele>536</ele>
        <time>2022-05-28T04:18:07Z</time>
      </trkpt>
      <trkpt lat="47.7618" lon="6.6948">
        <ele>528</ele>
        <time>2022-05-28T04:18:18Z</time>
      </trkpt>
      <trkpt lat="47.76225" lon="6.69475">
        <ele>524</ele>
        <time>2022-05-28T04:18:29Z</time>
      </trkpt>
      <trkpt lat="47.76281" lon="6.69445">
        <ele>522</ele>
        <time>2022-05-28T04:18:43Z</time>
      </trkpt>
      <trkpt lat="47.7633" lon="6.6942">
        <ele>522</ele>
        <time>2022-05-28T04:18:55Z</time>
      </trkpt>
      <trkpt lat="47.76388" lon="6.69402">
        <ele>523</ele>
        <time>2022-05-28T04:19:09Z</time>
      </trkpt>
      <trkpt lat="47.76432" lon="6.69379">
        <ele>524</ele>
        <time>2022-05-28T04:19:20Z</time>
      </trkpt>
      <trkpt lat="47.76453" lon="6.69336">
        <ele>524</ele>
        <time>2022-05-28T04:19:28Z</time>
      </trkpt>
      <trkpt lat="47.7648" lon="6.69291">
        <ele>523</ele>
        <time>2022-05-28T04:19:37Z</time>
      </trkpt>
      <trkpt lat="47.76526" lon="6.69257">
        <ele>527</ele>
        <time>2022-05-28T04:19:49Z</time>
      </trkpt>
      <trkpt lat="47.76551" lon="6.69216">
        <ele>528</ele>
        <time>2022-05-28T04:19:58Z</time>
      </trkpt>
      <trkpt lat="47.76575" lon="6.69162">
        <ele>525</ele>
        <time>2022-05-28T04:20:08Z</time>
      </trkpt>
      <trkpt lat="47.76597" lon="6.69076">
        <ele>524</ele>
        <time>2022-05-28T04:20:23Z</time>
      </trkpt>
      <trkpt lat="47.76613" lon="6.68999">
        <ele>526</ele>
        <time>2022-05-28T04:20:35Z</time>
      </trkpt>
      <trkpt lat="47.76631" lon="6.68928">
        <ele>529</ele>
        <time>2022-05-28T04:20:47Z</time>
      </trkpt>
      <trkpt lat="47.76646" lon="6.68855">
        <ele>530</ele>
        <time>2022-05-28T04:20:59Z</time>
      </trkpt>
      <trkpt lat="47.7666" lon="6.68802">
        <ele>532</ele>
        <time>2022-05-28T04:21:08Z</time>
      </trkpt>
      <trkpt lat="47.7668" lon="6.68733">
        <ele>533</ele>
        <time>2022-05-28T04:21:20Z</time>
      </trkpt>
      <trkpt lat="47.76698" lon="6.68688">
        <ele>536</ele>
        <time>2022-05-28T04:21:28Z</time>
      </trkpt>
      <trkpt lat="47.76745" lon="6.68675">
        <ele>548</ele>
        <time>2022-05-28T04:21:39Z</time>
      </trkpt>
      <trkpt lat="47.76744" lon="6.6875">
        <ele>549</ele>
        <time>2022-05-28T04:21:51Z</time>
      </trkpt>
      <trkpt lat="47.76767" lon="6.68808">
        <ele>555</ele>
        <time>2022-05-28T04:22:02Z</time>
      </trkpt>
      <trkpt lat="47.76813" lon="6.68842">
        <ele>560</ele>
        <time>2022-05-28T04:22:14Z</time>
      </trkpt>
      <trkpt lat="47.76875" lon="6.68868">
        <ele>565</ele>
        <time>2022-05-28T04:22:29Z</time>
      </trkpt>
      <trkpt lat="47.76874" lon="6.68819">
        <ele>566</ele>
        <time>2022-05-28T04:22:36Z</time>
      </trkpt>
      <trkpt lat="47.76894" lon="6.68769">
        <ele>570</ele>
        <time>2022-05-28T04:22:46Z</time>
      </trkpt>
      <trkpt lat="47.76917" lon="6.68731">
        <ele>573</ele>
        <time>2022-05-28T04:22:54Z</time>
      </trkpt>
      <trkpt lat="47.76969" lon="6.68709">
        <ele>570</ele>
        <time>2022-05-28T04:23:06Z</time>
      </trkpt>
      <trkpt lat="47.77021" lon="6.68748">
        <ele>571</ele>
        <time>2022-05-28T04:23:20Z</time>
      </trkpt>
      <trkpt lat="47.7706" lon="6.68795">
        <ele>579</ele>
        <time>2022-05-28T04:23:32Z</time>
      </trkpt>
      <trkpt lat="47.771" lon="6.68802">
        <ele>584</ele>
        <time>2022-05-28T04:23:41Z</time>
      </trkpt>
      <trkpt lat="47.7713" lon="6.68838">
        <ele>592</ele>
        <time>2022-05-28T04:23:50Z</time>
      </trkpt>
      <trkpt lat="47.77197" lon="6.68855">
        <ele>602</ele>
        <time>2022-05-28T04:24:06Z</time>
      </trkpt>
      <trkpt lat="47.77256" lon="6.68864">
        <ele>610</ele>
        <time>2022-05-28T04:24:20Z</time>
      </trkpt>
      <trkpt lat="47.77308" lon="6.6886">
        <ele>616</ele>
        <time>2022-05-28T04:24:32Z</time>
      </trkpt>
      <trkpt lat="47.77275" lon="6.68894">
        <ele>620</ele>
        <time>2022-05-28T04:24:41Z</time>
      </trkpt>
      <trkpt lat="47.77241" lon="6.68922">
        <ele>621</ele>
        <time>2022-05-28T04:24:50Z</time>
      </trkpt>
      <trkpt lat="47.77224" lon="6.68988">
        <ele>632</ele>
        <time>2022-05-28T04:25:01Z</time>
      </trkpt>
      <trkpt lat="47.77211" lon="6.69046">
        <ele>638</ele>
        <time>2022-05-28T04:25:11Z</time>
      </trkpt>
      <trkpt lat="47.77175" lon="6.69076">
        <ele>636</ele>
        <time>2022-05-28T04:25:21Z</time>
      </trkpt>
      <trkpt lat="47.77139" lon="6.69091">
        <ele>632</ele>
        <time>2022-05-28T04:25:29Z</time>
      </trkpt>
      <trkpt lat="47.77097" lon="6.69108">
        <ele>628</ele>
        <time>2022-05-28T04:25:39Z</time>
      </trkpt>
      <trkpt lat="47.7708" lon="6.69124">
        <ele>627</ele>
        <time>2022-05-28T04:25:44Z</time>
      </trkpt>
      <trkpt lat="47.77067" lon="6.69134">
        <ele>625</ele>
        <time>2022-05-28T04:25:48Z</time>
      </trkpt>
      <trkpt lat="47.77054" lon="6.69147">
        <ele>623</ele>
        <time>2022-05-28T04:25:51Z</time>
      </trkpt>
      <trkpt lat="47.77047" lon="6.69205">
        <ele>628</ele>
        <time>2022-05-28T04:26:01Z</time>
      </trkpt>
      <trkpt lat="47.7705" lon="6.69263">
        <ele>635</ele>
        <time>2022-05-28T04:26:10Z</time>
      </trkpt>
      <trkpt lat="47.77037" lon="6.69304">
        <ele>635</ele>
        <time>2022-05-28T04:26:17Z</time>
      </trkpt>
      <trkpt lat="47.7702" lon="6.69381">
        <ele>638</ele>
        <time>2022-05-28T04:26:29Z</time>
      </trkpt>
      <trkpt lat="47.7703" lon="6.69504">
        <ele>653</ele>
        <time>2022-05-28T04:26:49Z</time>
      </trkpt>
      <trkpt lat="47.77078" lon="6.69662">
        <ele>660</ele>
        <time>2022-05-28T04:27:16Z</time>
      </trkpt>
      <trkpt lat="47.77165" lon="6.69819">
        <ele>665</ele>
        <time>2022-05-28T04:27:48Z</time>
      </trkpt>
      <trkpt lat="47.77252" lon="6.70057">
        <ele>689</ele>
        <time>2022-05-28T04:28:31Z</time>
      </trkpt>
      <trkpt lat="47.77512" lon="6.70261">
        <ele>748</ele>
        <time>2022-05-28T04:29:39Z</time>
      </trkpt>
      <trkpt lat="47.77605" lon="6.70287">
        <ele>753</ele>
        <time>2022-05-28T04:30:01Z</time>
      </trkpt>
      <trkpt lat="47.77726" lon="6.70322">
        <ele>774</ele>
        <time>2022-05-28T04:30:30Z</time>
      </trkpt>
      <trkpt lat="47.77811" lon="6.70409">
        <ele>796</ele>
        <time>2022-05-28T04:30:54Z</time>
      </trkpt>
      <trkpt lat="47.77825" lon="6.70321">
        <ele>807</ele>
        <time>2022-05-28T04:31:08Z</time>
      </trkpt>
      <trkpt lat="47.77789" lon="6.70237">
        <ele>810</ele>
        <time>2022-05-28T04:31:24Z</time>
      </trkpt>
      <trkpt lat="47.77719" lon="6.70152">
        <ele>811</ele>
        <time>2022-05-28T04:31:45Z</time>
      </trkpt>
      <trkpt lat="47.77614" lon="6.70069">
        <ele>810</ele>
        <time>2022-05-28T04:32:13Z</time>
      </trkpt>
      <trkpt lat="47.7758" lon="6.69943">
        <ele>818</ele>
        <time>2022-05-28T04:32:34Z</time>
      </trkpt>
      <trkpt lat="47.77582" lon="6.69874">
        <ele>819</ele>
        <time>2022-05-28T04:32:45Z</time>
      </trkpt>
      <trkpt lat="47.77593" lon="6.69806">
        <ele>820</ele>
        <time>2022-05-28T04:32:56Z</time>
      </trkpt>
      <trkpt lat="47.77625" lon="6.69767">
        <ele>824</ele>
        <time>2022-05-28T04:33:06Z</time>
      </trkpt>
      <trkpt lat="47.77673" lon="6.69737">
        <ele>830</ele>
        <time>2022-05-28T04:33:18Z</time>
      </trkpt>
      <trkpt lat="47.77723" lon="6.69737">
        <ele>832</ele>
        <time>2022-05-28T04:33:30Z</time>
      </trkpt>
      <trkpt lat="47.77771" lon="6.69761">
        <ele>834</ele>
        <time>2022-05-28T04:33:41Z</time>
      </trkpt>
      <trkpt lat="47.77815" lon="6.69808">
        <ele>835</ele>
        <time>2022-05-28T04:33:54Z</time>
      </trkpt>
      <trkpt lat="47.77861" lon="6.69849">
        <ele>837</ele>
        <time>2022-05-28T04:34:07Z</time>
      </trkpt>
      <trkpt lat="47.77908" lon="6.69881">
        <ele>837</ele>
        <time>2022-05-28T04:34:19Z</time>
      </trkpt>
      <trkpt lat="47.7796" lon="6.69894">
        <ele>842</ele>
        <time>2022-05-28T04:34:31Z</time>
      </trkpt>
      <trkpt lat="47.78006" lon="6.69864">
        <ele>842</ele>
        <time>2022-05-28T04:34:43Z</time>
      </trkpt>
      <trkpt lat="47.78059" lon="6.69842">
        <ele>848</ele>
        <time>2022-05-28T04:34:55Z</time>
      </trkpt>
      <trkpt lat="47.78117" lon="6.69851">
        <ele>855</ele>
        <time>2022-05-28T04:35:09Z</time>
      </trkpt>
      <trkpt lat="47.78173" lon="6.69872">
        <ele>862</ele>
        <time>2022-05-28T04:35:23Z</time>
      </trkpt>
      <trkpt lat="47.78225" lon="6.69859">
        <ele>865</ele>
        <time>2022-05-28T04:35:35Z</time>
      </trkpt>
      <trkpt lat="47.78244" lon="6.69797">
        <ele>861</ele>
        <time>2022-05-28T04:35:46Z</time>
      </trkpt>
      <trkpt lat="47.78255" lon="6.69739">
        <ele>861</ele>
        <time>2022-05-28T04:35:55Z</time>
      </trkpt>
      <trkpt lat="47.78249" lon="6.69675">
        <ele>863</ele>
        <time>2022-05-28T04:36:05Z</time>
      </trkpt>
      <trkpt lat="47.78241" lon="6.69623">
        <ele>862</ele>
        <time>2022-05-28T04:36:14Z</time>
      </trkpt>
      <trkpt lat="47.78229" lon="6.69563">
        <ele>858</ele>
        <time>2022-05-28T04:36:23Z</time>
      </trkpt>
      <trkpt lat="47.78225" lon="6.69512">
        <ele>857</ele>
        <time>2022-05-28T04:36:31Z</time>
      </trkpt>
      <trkpt lat="47.78221" lon="6.6946">
        <ele>856</ele>
        <time>2022-05-28T04:36:40Z</time>
      </trkpt>
      <trkpt lat="47.78229" lon="6.69413">
        <ele>858</ele>
        <time>2022-05-28T04:36:47Z</time>
      </trkpt>
      <trkpt lat="47.78265" lon="6.69383">
        <ele>859</ele>
        <time>2022-05-28T04:36:57Z</time>
      </trkpt>
      <trkpt lat="47.78308" lon="6.69392">
        <ele>858</ele>
        <time>2022-05-28T04:37:07Z</time>
      </trkpt>
      <trkpt lat="47.78343" lon="6.69437">
        <ele>862</ele>
        <time>2022-05-28T04:37:18Z</time>
      </trkpt>
      <trkpt lat="47.78373" lon="6.69473">
        <ele>862</ele>
        <time>2022-05-28T04:37:27Z</time>
      </trkpt>
      <trkpt lat="47.78386" lon="6.69437">
        <ele>858</ele>
        <time>2022-05-28T04:37:33Z</time>
      </trkpt>
      <trkpt lat="47.78381" lon="6.69405">
        <ele>856</ele>
        <time>2022-05-28T04:37:38Z</time>
      </trkpt>
      <trkpt lat="47.78376" lon="6.69379">
        <ele>854</ele>
        <time>2022-05-28T04:37:43Z</time>
      </trkpt>
      <trkpt lat="47.78385" lon="6.69344">
        <ele>850</ele>
        <time>2022-05-28T04:37:49Z</time>
      </trkpt>
      <trkpt lat="47.78427" lon="6.69353">
        <ele>849</ele>
        <time>2022-05-28T04:37:58Z</time>
      </trkpt>
      <trkpt lat="47.78458" lon="6.69319">
        <ele>843</ele>
        <time>2022-05-28T04:38:07Z</time>
      </trkpt>
      <trkpt lat="47.7846" lon="6.69284">
        <ele>839</ele>
        <time>2022-05-28T04:38:13Z</time>
      </trkpt>
      <trkpt lat="47.78432" lon="6.69254">
        <ele>836</ele>
        <time>2022-05-28T04:38:21Z</time>
      </trkpt>
      <trkpt lat="47.78419" lon="6.69216">
        <ele>831</ele>
        <time>2022-05-28T04:38:28Z</time>
      </trkpt>
      <trkpt lat="47.78451" lon="6.69186">
        <ele>827</ele>
        <time>2022-05-28T04:38:37Z</time>
      </trkpt>
      <trkpt lat="47.78489" lon="6.69156">
        <ele>822</ele>
        <time>2022-05-28T04:38:47Z</time>
      </trkpt>
      <trkpt lat="47.78494" lon="6.69104">
        <ele>814</ele>
        <time>2022-05-28T04:38:55Z</time>
      </trkpt>
      <trkpt lat="47.78473" lon="6.69059">
        <ele>807</ele>
        <time>2022-05-28T04:39:03Z</time>
      </trkpt>
      <trkpt lat="47.78461" lon="6.6901">
        <ele>799</ele>
        <time>2022-05-28T04:39:12Z</time>
      </trkpt>
      <trkpt lat="47.78461" lon="6.68963">
        <ele>792</ele>
        <time>2022-05-28T04:39:19Z</time>
      </trkpt>
      <trkpt lat="47.78486" lon="6.68928">
        <ele>789</ele>
        <time>2022-05-28T04:39:27Z</time>
      </trkpt>
      <trkpt lat="47.7848" lon="6.68896">
        <ele>785</ele>
        <time>2022-05-28T04:39:32Z</time>
      </trkpt>
      <trkpt lat="47.78531" lon="6.68879">
        <ele>784</ele>
        <time>2022-05-28T04:39:44Z</time>
      </trkpt>
      <trkpt lat="47.78582" lon="6.68885">
        <ele>780</ele>
        <time>2022-05-28T04:39:56Z</time>
      </trkpt>
      <trkpt lat="47.78636" lon="6.68896">
        <ele>775</ele>
        <time>2022-05-28T04:40:09Z</time>
      </trkpt>
      <trkpt lat="47.78685" lon="6.6889">
        <ele>769</ele>
        <time>2022-05-28T04:40:21Z</time>
      </trkpt>
      <trkpt lat="47.78704" lon="6.68847">
        <ele>766</ele>
        <time>2022-05-28T04:40:29Z</time>
      </trkpt>
      <trkpt lat="47.78698" lon="6.68787">
        <ele>767</ele>
        <time>2022-05-28T04:40:38Z</time>
      </trkpt>
      <trkpt lat="47.7868" lon="6.68739">
        <ele>768</ele>
        <time>2022-05-28T04:40:47Z</time>
      </trkpt>
      <trkpt lat="47.7865" lon="6.68684">
        <ele>768</ele>
        <time>2022-05-28T04:40:58Z</time>
      </trkpt>
      <trkpt lat="47.78623" lon="6.68636">
        <ele>767</ele>
        <time>2022-05-28T04:41:08Z</time>
      </trkpt>
      <trkpt lat="47.786" lon="6.68574">
        <ele>763</ele>
        <time>2022-05-28T04:41:19Z</time>
      </trkpt>
      <trkpt lat="47.78572" lon="6.68516">
        <ele>756</ele>
        <time>2022-05-28T04:41:30Z</time>
      </trkpt>
      <trkpt lat="47.78558" lon="6.68475">
        <ele>751</ele>
        <time>2022-05-28T04:41:37Z</time>
      </trkpt>
      <trkpt lat="47.78554" lon="6.68437">
        <ele>748</ele>
        <time>2022-05-28T04:41:43Z</time>
      </trkpt>
      <trkpt lat="47.78562" lon="6.68381">
        <ele>750</ele>
        <time>2022-05-28T04:41:52Z</time>
      </trkpt>
      <trkpt lat="47.78551" lon="6.68345">
        <ele>748</ele>
        <time>2022-05-28T04:41:58Z</time>
      </trkpt>
      <trkpt lat="47.78536" lon="6.6831">
        <ele>745</ele>
        <time>2022-05-28T04:42:05Z</time>
      </trkpt>
      <trkpt lat="47.78554" lon="6.68267">
        <ele>749</ele>
        <time>2022-05-28T04:42:13Z</time>
      </trkpt>
      <trkpt lat="47.78548" lon="6.68214">
        <ele>748</ele>
        <time>2022-05-28T04:42:21Z</time>
      </trkpt>
      <trkpt lat="47.78538" lon="6.68166">
        <ele>746</ele>
        <time>2022-05-28T04:42:29Z</time>
      </trkpt>
      <trkpt lat="47.78516" lon="6.68098">
        <ele>745</ele>
        <time>2022-05-28T04:42:41Z</time>
      </trkpt>
      <trkpt lat="47.78497" lon="6.68055">
        <ele>744</ele>
        <time>2022-05-28T04:42:49Z</time>
      </trkpt>
      <trkpt lat="47.78481" lon="6.68012">
        <ele>744</ele>
        <time>2022-05-28T04:42:57Z</time>
      </trkpt>
      <trkpt lat="47.78461" lon="6.67978">
        <ele>744</ele>
        <time>2022-05-28T04:43:04Z</time>
      </trkpt>
      <trkpt lat="47.78432" lon="6.67941">
        <ele>746</ele>
        <time>2022-05-28T04:43:13Z</time>
      </trkpt>
      <trkpt lat="47.78404" lon="6.67922">
        <ele>747</ele>
        <time>2022-05-28T04:43:20Z</time>
      </trkpt>
      <trkpt lat="47.7837" lon="6.67896">
        <ele>744</ele>
        <time>2022-05-28T04:43:29Z</time>
      </trkpt>
      <trkpt lat="47.78347" lon="6.67862">
        <ele>742</ele>
        <time>2022-05-28T04:43:37Z</time>
      </trkpt>
      <trkpt lat="47.7833" lon="6.67823">
        <ele>739</ele>
        <time>2022-05-28T04:43:44Z</time>
      </trkpt>
      <trkpt lat="47.78326" lon="6.67772">
        <ele>736</ele>
        <time>2022-05-28T04:43:52Z</time>
      </trkpt>
      <trkpt lat="47.78323" lon="6.67716">
        <ele>735</ele>
        <time>2022-05-28T04:44:01Z</time>
      </trkpt>
      <trkpt lat="47.78321" lon="6.67673">
        <ele>734</ele>
        <time>2022-05-28T04:44:08Z</time>
      </trkpt>
      <trkpt lat="47.78284" lon="6.67643">
        <ele>732</ele>
        <time>2022-05-28T04:44:17Z</time>
      </trkpt>
      <trkpt lat="47.78254" lon="6.67617">
        <ele>731</ele>
        <time>2022-05-28T04:44:25Z</time>
      </trkpt>
      <trkpt lat="47.78241" lon="6.67576">
        <ele>731</ele>
        <time>2022-05-28T04:44:33Z</time>
      </trkpt>
      <trkpt lat="47.78235" lon="6.67514">
        <ele>731</ele>
        <time>2022-05-28T04:44:42Z</time>
      </trkpt>
      <trkpt lat="47.78212" lon="6.67488">
        <ele>729</ele>
        <time>2022-05-28T04:44:49Z</time>
      </trkpt>
      <trkpt lat="47.78186" lon="6.67469">
        <ele>726</ele>
        <time>2022-05-28T04:44:56Z</time>
      </trkpt>
      <trkpt lat="47.78154" lon="6.67448">
        <ele>725</ele>
        <time>2022-05-28T04:45:04Z</time>
      </trkpt>
      <trkpt lat="47.78131" lon="6.67422">
        <ele>726</ele>
        <time>2022-05-28T04:45:11Z</time>
      </trkpt>
      <trkpt lat="47.78124" lon="6.67368">
        <ele>726</ele>
        <time>2022-05-28T04:45:19Z</time>
      </trkpt>
      <trkpt lat="47.78114" lon="6.67297">
        <ele>724</ele>
        <time>2022-05-28T04:45:31Z</time>
      </trkpt>
      <trkpt lat="47.78102" lon="6.67224">
        <ele>722</ele>
        <time>2022-05-28T04:45:43Z</time>
      </trkpt>
      <trkpt lat="47.78095" lon="6.67152">
        <ele>723</ele>
        <time>2022-05-28T04:45:54Z</time>
      </trkpt>
      <trkpt lat="47.78088" lon="6.671">
        <ele>720</ele>
        <time>2022-05-28T04:46:02Z</time>
      </trkpt>
      <trkpt lat="47.78069" lon="6.67049">
        <ele>718</ele>
        <time>2022-05-28T04:46:12Z</time>
      </trkpt>
      <trkpt lat="47.78055" lon="6.66988">
        <ele>714</ele>
        <time>2022-05-28T04:46:22Z</time>
      </trkpt>
      <trkpt lat="47.78033" lon="6.66939">
        <ele>713</ele>
        <time>2022-05-28T04:46:31Z</time>
      </trkpt>
      <trkpt lat="47.78006" lon="6.66911">
        <ele>714</ele>
        <time>2022-05-28T04:46:39Z</time>
      </trkpt>
      <trkpt lat="47.77993" lon="6.66883">
        <ele>712</ele>
        <time>2022-05-28T04:46:44Z</time>
      </trkpt>
      <trkpt lat="47.77952" lon="6.66849">
        <ele>713</ele>
        <time>2022-05-28T04:46:55Z</time>
      </trkpt>
      <trkpt lat="47.77915" lon="6.66819">
        <ele>715</ele>
        <time>2022-05-28T04:47:05Z</time>
      </trkpt>
      <trkpt lat="47.77879" lon="6.66789">
        <ele>714</ele>
        <time>2022-05-28T04:47:14Z</time>
      </trkpt>
      <trkpt lat="47.77864" lon="6.66764">
        <ele>709.6</ele>
      </trkpt>
      <trkpt lat="47.77838" lon="6.66719">
        <ele>711.7</ele>
      </trkpt>
      <trkpt lat="47.77807" lon="6.66664">
        <ele>713</ele>
      </trkpt>
      <trkpt lat="47.77787" lon="6.66647">
        <ele>712.2</ele>
      </trkpt>
      <trkpt lat="47.77764" lon="6.6664">
        <ele>712.6</ele>
      </trkpt>
      <trkpt lat="47.77732" lon="6.66609">
        <ele>710.7</ele>
      </trkpt>
      <trkpt lat="47.77699" lon="6.66589">
        <ele>712.7</ele>
      </trkpt>
      <trkpt lat="47.77684" lon="6.66547">
        <ele>719.6</ele>
      </trkpt>
      <trkpt lat="47.77655" lon="6.66529">
        <ele>722</ele>
      </trkpt>
      <trkpt lat="47.7764" lon="6.66495">
        <ele>724.8</ele>
      </trkpt>
      <trkpt lat="47.77625" lon="6.66352">
        <ele>731.5</ele>
      </trkpt>
      <trkpt lat="47.77594" lon="6.66227">
        <ele>731.4</ele>
      </trkpt>
      <trkpt lat="47.77555" lon="6.66169">
        <ele>726.6</ele>
      </trkpt>
      <trkpt lat="47.77453" lon="6.66068">
        <ele>717.2</ele>
      </trkpt>
      <trkpt lat="47.7741" lon="6.65972">
        <ele>710.1</ele>
      </trkpt>
      <trkpt lat="47.77375" lon="6.65886">
        <ele>698.7</ele>
      </trkpt>
      <trkpt lat="47.7733" lon="6.65796">
        <ele>689.4</ele>
      </trkpt>
      <trkpt lat="47.77316" lon="6.6557">
        <ele>679.2</ele>
      </trkpt>
      <trkpt lat="47.77273" lon="6.65349">
        <ele>670.8</ele>
      </trkpt>
      <trkpt lat="47.77265" lon="6.65253">
        <ele>668.1</ele>
      </trkpt>
      <trkpt lat="47.77199" lon="6.65112">
        <ele>659.6</ele>
      </trkpt>
      <trkpt lat="47.77192" lon="6.6506">
        <ele>659.2</ele>
      </trkpt>
      <trkpt lat="47.77194" lon="6.65039">
        <ele>657.8</ele>
      </trkpt>
      <trkpt lat="47.77163" lon="6.64915">
        <ele>648.3</ele>
      </trkpt>
      <trkpt lat="47.77118" lon="6.64846">
        <ele>642.7</ele>
      </trkpt>
      <trkpt lat="47.77117" lon="6.64801">
        <ele>636</ele>
      </trkpt>
      <trkpt lat="47.77076" lon="6.64794">
        <ele>634.7</ele>
      </trkpt>
      <trkpt lat="47.77072" lon="6.64771">
        <ele>632.3</ele>
      </trkpt>
      <trkpt lat="47.77134" lon="6.64756">
        <ele>626.2</ele>
      </trkpt>
      <trkpt lat="47.77145" lon="6.64726">
        <ele>625.9</ele>
      </trkpt>
      <trkpt lat="47.77105" lon="6.64678">
        <ele>618.6</ele>
      </trkpt>
      <trkpt lat="47.77059" lon="6.64687">
        <ele>607</ele>
      </trkpt>
      <trkpt lat="47.77003" lon="6.64657">
        <ele>595.8</ele>
      </trkpt>
      <trkpt lat="47.76932" lon="6.64646">
        <ele>586.4</ele>
      </trkpt>
      <trkpt lat="47.76912" lon="6.64678">
        <ele>583.1</ele>
      </trkpt>
      <trkpt lat="47.76922" lon="6.64739">
        <ele>582.9</ele>
      </trkpt>
      <trkpt lat="47.76907" lon="6.64827">
        <ele>581</ele>
      </trkpt>
      <trkpt lat="47.76865" lon="6.64994">
        <ele>563.9</ele>
      </trkpt>
      <trkpt lat="47.76834" lon="6.65018">
        <ele>559.3</ele>
      </trkpt>
      <trkpt lat="47.76798" lon="6.65016">
        <ele>559.5</ele>
      </trkpt>
      <trkpt lat="47.76769" lon="6.64977">
        <ele>556.8</ele>
      </trkpt>
      <trkpt lat="47.76704" lon="6.64859">
        <ele>548.6</ele>
      </trkpt>
      <trkpt lat="47.7668" lon="6.64822">
        <ele>545.2</ele>
      </trkpt>
      <trkpt lat="47.76632" lon="6.64775">
        <ele>539.8</ele>
      </trkpt>
      <trkpt lat="47.76568" lon="6.64756">
        <ele>536.4</ele>
      </trkpt>
      <trkpt lat="47.76525" lon="6.64758">
        <ele>533.9</ele>
      </trkpt>
      <trkpt lat="47.76427" lon="6.64775">
        <ele>518.4</ele>
      </trkpt>
      <trkpt lat="47.76367" lon="6.64828">
        <ele>511.3</ele>
      </trkpt>
      <trkpt lat="47.76314" lon="6.64844">
        <ele>503.7</ele>
      </trkpt>
      <trkpt lat="47.76272" lon="6.64874">
        <ele>501.4</ele>
      </trkpt>
      <trkpt lat="47.76236" lon="6.64905">
        <ele>499.1</ele>
      </trkpt>
      <trkpt lat="47.76119" lon="6.64848">
        <ele>485.5</ele>
      </trkpt>
      <trkpt lat="47.76049" lon="6.64835">
        <ele>480.3</ele>
      </trkpt>
      <trkpt lat="47.76045" lon="6.64863">
        <ele>478.4</ele>
      </trkpt>
      <trkpt lat="47.76058" lon="6.64974">
        <ele>472.4</ele>
      </trkpt>
      <trkpt lat="47.76065" lon="6.65047">
        <ele>473.1</ele>
      </trkpt>
      <trkpt lat="47.76054" lon="6.65118">
        <ele>473.2</ele>
      </trkpt>
      <trkpt lat="47.76015" lon="6.65195">
        <ele>472.6</ele>
      </trkpt>
      <trkpt lat="47.75977" lon="6.65178">
        <ele>468.8</ele>
      </trkpt>
      <trkpt lat="47.75927" lon="6.65178">
        <ele>465.1</ele>
      </trkpt>
      <trkpt lat="47.75876" lon="6.65169">
        <ele>461.7</ele>
      </trkpt>
      <trkpt lat="47.75836" lon="6.6523">
        <ele>460.5</ele>
      </trkpt>
      <trkpt lat="47.75817" lon="6.65315">
        <ele>461.2</ele>
      </trkpt>
      <trkpt lat="47.75833" lon="6.6542">
        <ele>458</ele>
      </trkpt>
      <trkpt lat="47.75789" lon="6.65535">
        <ele>459.2</ele>
      </trkpt>
      <trkpt lat="47.75726" lon="6.65668">
        <ele>467.7</ele>
        <time>2022-05-28T03:59:07Z</time>
      </trkpt>
    </trkseg>
  </trk>
</gpx>